Time;durP1;ratioP1;P1;durP2;ratioP2;P2;SDS_P1;SDS_P2;PMS_P1;PMS_P2;Temp;Humidity;BMP_temperature;BMP_pressure;BME280_temperature;BME280_humidity;BME280_pressure;Samples;Min_cycle;Max_cycle;Signal;HPM_P1;HPM_P2
2021/09/18 00:01:21;;;;;;;;;;;;;;;22.84;80.60;100741.39;1724037;82;20216;-73
2021/09/18 00:03:52;;;;;;;;;;;;;;;22.81;80.74;100740.64;1724294;83;20296;-71
2021/09/18 00:06:24;;;;;;;;;;;;;;;22.78;80.74;100744.73;1724662;83;20250;-73
2021/09/18 00:08:56;;;;;;;;;;;;;;;22.73;80.69;100762.76;1719438;83;20196;-75
2021/09/18 00:11:29;;;;;;;;;;;;;;;22.68;80.52;100757.27;1719538;83;20204;-76
2021/09/18 00:14:00;;;;;;;;;;;;;;;22.65;80.73;100759.38;1719561;82;20547;-78
2021/09/18 00:16:32;;;;;;;;;;;;;;;22.64;80.96;100746.97;1719448;83;20231;-74
2021/09/18 00:19:05;;;;;;;;;;;;;;;22.62;81.02;100747.91;1719029;83;20223;-75
2021/09/18 00:21:37;;;;;;;;;;;;;;;22.63;80.99;100743.33;1718807;83;20263;-73
2021/09/18 00:24:10;;;;;;;;;;;;;;;22.64;80.70;100732.81;1686726;83;20654;-72
2021/09/18 00:26:41;;;;;;;;;;;;;;;22.62;80.24;100728.09;1683138;85;20573;-74
2021/09/18 00:29:15;;;;;;;;;;;;;;;22.56;80.14;100725.20;1682362;85;20545;-73
2021/09/18 00:31:46;;;;;;;;;;;;;;;22.46;80.34;100715.08;1689021;84;20200;-73
2021/09/18 00:34:18;;;;;;;;;;;;;;;22.44;80.65;100722.25;1699109;84;20197;-75
2021/09/18 00:36:51;;;;;;;;;;;;;;;22.47;80.80;100732.88;1690545;84;20238;-75
2021/09/18 00:39:23;;;;;;;;;;;;;;;22.47;80.78;100730.05;1690184;84;21133;-73
2021/09/18 00:41:56;;;;;;;;;;;;;;;22.44;80.89;100738.63;1690081;85;20558;-73
2021/09/18 00:44:28;;;;;;;;;;;;;;;22.43;81.10;100718.58;1690148;85;20270;-73
2021/09/18 00:46:59;;;;;;;;;;;;;;;22.46;81.04;100724.98;1690241;85;20206;-76
2021/09/18 00:49:31;;;;;;;;;;;;;;;22.51;81.03;100724.81;1690062;85;20559;-79
2021/09/18 00:52:03;;;;;;;;;;;;;;;22.54;80.97;100730.34;1690004;85;20252;-73
2021/09/18 00:54:36;;;;;;;;;;;;;;;22.56;81.08;100732.28;1689698;85;20313;-74
2021/09/18 00:57:09;;;;;;;;;;;;;;;22.59;81.20;100727.34;1662202;86;20209;-77
2021/09/18 00:59:40;;;;;;;;;;;;;;;22.61;81.34;100730.68;1662374;86;20193;-75
2021/09/18 01:02:12;;;;;;;;;;;;;;;22.58;81.41;100725.11;1644892;86;20236;-75
2021/09/18 01:04:44;;;;;;;;;;;;;;;22.59;81.62;100724.50;1662370;86;20248;-75
2021/09/18 01:07:17;;;;;;;;;;;;;;;22.57;81.59;100724.87;1667714;85;20198;-73
2021/09/18 01:09:48;;;;;;;;;;;;;;;22.58;81.62;100726.52;1689847;85;20642;-74
2021/09/18 01:12:21;;;;;;;;;;;;;;;22.59;81.60;100716.01;1678206;85;20226;-72
2021/09/18 01:14:52;;;;;;;;;;;;;;;22.60;81.49;100713.42;1678032;85;20194;-74
2021/09/18 01:17:24;;;;;;;;;;;;;;;22.62;81.39;100715.34;1678092;85;20179;-73
2021/09/18 01:19:56;;;;;;;;;;;;;;;22.60;81.32;100714.27;1677974;85;20270;-75
2021/09/18 01:22:29;;;;;;;;;;;;;;;22.60;81.37;100714.84;1678177;85;20543;-74
2021/09/18 01:25:03;;;;;;;;;;;;;;;22.61;81.42;100706.61;1686129;85;20318;-73
2021/09/18 01:27:35;;;;;;;;;;;;;;;22.61;81.35;100710.86;1687419;84;20277;-75
2021/09/18 01:30:07;;;;;;;;;;;;;;;22.60;81.42;100706.34;1682416;85;20227;-76
2021/09/18 01:32:39;;;;;;;;;;;;;;;22.64;81.39;100707.33;1682420;84;20266;-73
2021/09/18 01:35:12;;;;;;;;;;;;;;;22.64;81.19;100701.09;1682441;85;20194;-74
2021/09/18 01:37:46;;;;;;;;;;;;;;;22.63;81.07;100707.09;1682529;84;20588;-74
2021/09/18 01:40:28;;;;;;;;;;;;;;;22.61;80.88;100704.59;1682540;85;20253;-74
2021/09/18 01:43:00;;;;;;;;;;;;;;;22.63;80.66;100698.02;1683053;85;20186;-77
2021/09/18 01:45:34;;;;;;;;;;;;;;;22.64;80.30;100694.59;1646634;87;20269;-75
2021/09/18 01:48:08;;;;;;;;;;;;;;;22.64;80.00;100696.00;1681992;85;20190;-74
2021/09/18 01:50:51;;;;;;;;;;;;;;;22.62;79.54;100699.17;1682185;85;20563;-77
2021/09/18 01:53:23;;;;;;;;;;;;;;;22.59;79.34;100697.61;1682441;83;20207;-77
2021/09/18 01:55:56;;;;;;;;;;;;;;;22.56;79.11;100699.11;1646834;86;20228;-76
2021/09/18 01:58:28;;;;;;;;;;;;;;;22.58;78.82;100700.20;1713012;83;20196;-74
2021/09/18 02:01:02;;;;;;;;;;;;;;;22.59;78.53;100703.27;1720639;83;20251;-73
2021/09/18 02:03:34;;;;;;;;;;;;;;;22.57;78.12;100699.39;1706984;83;20263;-74
2021/09/18 02:06:06;;;;;;;;;;;;;;;22.51;78.09;100699.91;1705841;83;20214;-72
2021/09/18 02:08:39;;;;;;;;;;;;;;;22.47;78.19;100700.33;1657727;83;20580;-73
2021/09/18 02:11:13;;;;;;;;;;;;;;;22.44;78.33;100689.70;1642887;80;20192;-74
2021/09/18 02:13:45;;;;;;;;;;;;;;;22.46;78.32;100700.92;1723375;83;20186;-83
2021/09/18 02:16:17;;;;;;;;;;;;;;;22.44;78.38;100699.61;1716423;83;20222;-75
2021/09/18 02:18:49;;;;;;;;;;;;;;;22.41;78.34;100701.65;1712074;83;20223;-73
2021/09/18 02:21:22;;;;;;;;;;;;;;;22.30;78.50;100694.72;1739869;82;20565;-73
2021/09/18 02:23:54;;;;;;;;;;;;;;;22.17;78.92;100685.83;1753485;81;20269;-73
2021/09/18 02:26:26;;;;;;;;;;;;;;;22.09;79.56;100686.70;1714129;83;20222;-73
2021/09/18 02:28:58;;;;;;;;;;;;;;;21.99;80.04;100674.32;1716717;83;20596;-74
2021/09/18 02:31:31;;;;;;;;;;;;;;;21.92;80.63;100674.85;1737395;82;20235;-73
2021/09/18 02:34:03;;;;;;;;;;;;;;;21.85;81.23;100666.63;1709906;82;20286;-73
2021/09/18 02:36:35;;;;;;;;;;;;;;;21.82;81.66;100667.31;1708124;84;20217;-70
2021/09/18 02:39:06;;;;;;;;;;;;;;;21.79;82.12;100669.38;1719471;83;20217;-71
2021/09/18 02:41:38;;;;;;;;;;;;;;;21.79;82.46;100665.14;1754531;82;20263;-71
2021/09/18 02:44:09;;;;;;;;;;;;;;;21.78;82.87;100657.83;1757800;82;20264;-71
2021/09/18 02:46:40;;;;;;;;;;;;;;;21.78;83.08;100655.84;1757829;82;20192;-69
2021/09/18 02:49:13;;;;;;;;;;;;;;;21.79;83.31;100652.42;1760230;81;20626;-70
2021/09/18 02:51:45;;;;;;;;;;;;;;;21.79;83.53;100651.00;1722377;83;20246;-70
2021/09/18 02:54:16;;;;;;;;;;;;;;;21.79;83.69;100654.67;1712964;83;20197;-70
2021/09/18 02:56:49;;;;;;;;;;;;;;;21.79;83.94;100643.94;1750586;82;20262;-71
2021/09/18 02:59:22;;;;;;;;;;;;;;;21.82;84.05;100645.50;1712029;83;20194;-71
2021/09/18 03:01:53;;;;;;;;;;;;;;;21.83;84.13;100647.16;1712830;83;20749;-74
2021/09/18 03:04:25;;;;;;;;;;;;;;;21.83;84.25;100635.84;1713199;83;20186;-70
2021/09/18 03:06:58;;;;;;;;;;;;;;;21.86;84.32;100637.17;1712548;83;20187;-71
2021/09/18 03:09:30;;;;;;;;;;;;;;;21.91;84.34;100635.59;1712154;83;20373;-71
2021/09/18 03:12:04;;;;;;;;;;;;;;;21.93;84.27;100634.66;1716646;83;20228;-70
2021/09/18 03:14:36;;;;;;;;;;;;;;;21.95;84.26;100637.39;1725022;82;20539;-72
2021/09/18 03:17:08;;;;;;;;;;;;;;;22.00;84.25;100639.23;1727523;82;20536;-73
2021/09/18 03:19:41;;;;;;;;;;;;;;;21.98;84.16;100640.98;1727653;83;20212;-72
2021/09/18 03:22:14;;;;;;;;;;;;;;;21.99;84.33;100638.97;1727582;83;20560;-75
2021/09/18 03:24:46;;;;;;;;;;;;;;;21.99;84.44;100642.64;1697927;83;20192;-69
2021/09/18 03:27:18;;;;;;;;;;;;;;;21.98;84.67;100639.56;1727992;82;20264;-73
2021/09/18 03:29:50;;;;;;;;;;;;;;;21.96;84.90;100626.36;1745299;81;20288;-71
2021/09/18 03:32:21;;;;;;;;;;;;;;;21.98;85.37;100621.19;1743409;82;20568;-72
2021/09/18 03:34:52;;;;;;;;;;;;;;;22.04;85.50;100628.89;1757731;82;20226;-74
2021/09/18 03:37:24;;;;;;;;;;;;;;;22.02;85.34;100617.94;1757747;82;20173;-71
2021/09/18 03:39:56;;;;;;;;;;;;;;;21.97;85.50;100624.34;1757935;82;20265;-74
2021/09/18 03:42:27;;;;;;;;;;;;;;;21.93;85.68;100626.17;1757948;81;20270;-70
2021/09/18 03:45:00;;;;;;;;;;;;;;;21.93;85.99;100631.26;1721156;82;20638;-71
2021/09/18 03:47:32;;;;;;;;;;;;;;;21.95;86.14;100634.57;1711318;83;20230;-71
2021/09/18 03:50:04;;;;;;;;;;;;;;;21.98;86.32;100633.06;1715658;84;20301;-73
2021/09/18 03:52:37;;;;;;;;;;;;;;;21.98;86.19;100631.66;1721488;83;20558;-73
2021/09/18 03:55:10;;;;;;;;;;;;;;;21.97;86.37;100635.08;1725214;80;20496;-73
2021/09/18 03:57:42;;;;;;;;;;;;;;;21.99;86.33;100644.63;1702037;83;20563;-71
2021/09/18 04:00:14;;;;;;;;;;;;;;;22.00;86.69;100639.23;1685871;84;20180;-72
2021/09/18 04:02:46;;;;;;;;;;;;;;;22.03;86.95;100634.30;1699991;84;20244;-72
2021/09/18 04:05:19;;;;;;;;;;;;;;;22.01;87.24;100635.23;1698464;83;20275;-71
2021/09/18 04:07:51;;;;;;;;;;;;;;;21.95;87.67;100641.64;1715879;83;20295;-72
2021/09/18 04:10:23;;;;;;;;;;;;;;;21.89;87.97;100632.28;1691143;84;20201;-71
2021/09/18 04:12:55;;;;;;;;;;;;;;;21.87;88.67;100634.59;1709577;84;20624;-74
2021/09/18 04:15:28;;;;;;;;;;;;;;;21.85;88.86;100642.59;1687562;84;20548;-71
2021/09/18 04:18:00;;;;;;;;;;;;;;;21.78;89.16;100638.04;1681405;84;20207;-71
2021/09/18 04:20:32;;;;;;;;;;;;;;;21.72;89.60;100633.16;1681478;85;20303;-71
2021/09/18 04:23:05;;;;;;;;;;;;;;;21.70;90.35;100631.83;1679925;84;20562;-72
2021/09/18 04:25:37;;;;;;;;;;;;;;;21.73;90.85;100638.21;1686230;84;20196;-71
2021/09/18 04:28:09;;;;;;;;;;;;;;;21.74;90.82;100625.16;1669347;85;20282;-73
2021/09/18 04:30:41;;;;;;;;;;;;;;;21.75;91.19;100617.52;1674825;84;20220;-74
2021/09/18 04:33:13;;;;;;;;;;;;;;;21.76;91.19;100623.42;1695876;85;20269;-73
2021/09/18 04:35:45;;;;;;;;;;;;;;;21.73;91.19;100619.83;1695811;83;20197;-72
2021/09/18 04:38:17;;;;;;;;;;;;;;;21.70;91.34;100621.94;1695772;83;20610;-71
2021/09/18 04:40:49;;;;;;;;;;;;;;;21.66;91.68;100620.33;1698016;84;20300;-71
2021/09/18 04:43:22;;;;;;;;;;;;;;;21.69;92.09;100628.77;1695506;84;20192;-75
2021/09/18 04:45:53;;;;;;;;;;;;;;;21.69;92.05;100622.50;1695534;84;20248;-73
2021/09/18 04:48:25;;;;;;;;;;;;;;;21.75;92.59;100635.91;1721742;83;20262;-71
2021/09/18 04:50:56;;;;;;;;;;;;;;;21.78;92.35;100637.47;1717317;83;20188;-73
2021/09/18 04:53:28;;;;;;;;;;;;;;;21.77;92.28;100637.20;1691142;84;20555;-74
2021/09/18 04:56:01;;;;;;;;;;;;;;;21.78;92.57;100636.63;1694361;84;20284;-71
2021/09/18 04:58:33;;;;;;;;;;;;;;;21.76;92.32;100638.37;1665052;84;20236;-72
2021/09/18 05:01:04;;;;;;;;;;;;;;;21.78;92.71;100632.39;1636354;85;20198;-77
2021/09/18 05:03:36;;;;;;;;;;;;;;;21.80;92.72;100633.71;1654295;85;20185;-72
2021/09/18 05:06:09;;;;;;;;;;;;;;;21.81;92.56;100633.95;1656742;86;20197;-74
2021/09/18 05:08:40;;;;;;;;;;;;;;;21.79;92.52;100636.30;1656482;86;20247;-73
2021/09/18 05:11:13;;;;;;;;;;;;;;;21.80;92.78;100631.45;1653802;86;20233;-74
2021/09/18 05:13:45;;;;;;;;;;;;;;;21.79;92.64;100627.81;1651330;86;20225;-74
2021/09/18 05:16:18;;;;;;;;;;;;;;;21.81;92.77;100625.47;1658216;84;20193;-74
2021/09/18 05:18:50;;;;;;;;;;;;;;;21.87;92.97;100621.86;1655919;85;20224;-73
2021/09/18 05:21:23;;;;;;;;;;;;;;;21.90;92.61;100626.86;1658538;86;20240;-75
2021/09/18 05:23:55;;;;;;;;;;;;;;;21.88;92.36;100627.80;1656645;86;20189;-76
2021/09/18 05:26:31;;;;;;;;;;;;;;;21.85;92.21;100630.70;1657606;85;20256;-74
2021/09/18 05:29:03;;;;;;;;;;;;;;;21.91;92.35;100624.27;1651683;86;20243;-71
2021/09/18 05:31:35;;;;;;;;;;;;;;;22.01;92.02;100617.66;1652780;86;20252;-72
2021/09/18 05:34:09;;;;;;;;;;;;;;;22.12;91.32;100610.47;1649790;86;21016;-76
2021/09/18 05:36:42;;;;;;;;;;;;;;;22.22;90.88;100621.99;1634719;86;20216;-68
2021/09/18 05:39:14;;;;;;;;;;;;;;;22.28;90.31;100621.48;1656983;86;20218;-77
2021/09/18 05:41:45;;;;;;;;;;;;;;;22.36;89.88;100623.42;1653853;86;20274;-72
2021/09/18 05:44:18;;;;;;;;;;;;;;;22.44;89.72;100617.52;1654774;85;20253;-73
2021/09/18 05:46:51;;;;;;;;;;;;;;;22.52;89.46;100625.97;1653248;85;21120;-70
2021/09/18 05:49:23;;;;;;;;;;;;;;;22.62;89.06;100624.74;1644687;86;20262;-74
2021/09/18 05:51:55;;;;;;;;;;;;;;;22.69;88.39;100629.28;1656538;85;20209;-72
2021/09/18 05:54:27;;;;;;;;;;;;;;;22.73;87.78;100626.02;1664860;85;20341;-80
2021/09/18 05:57:01;;;;;;;;;;;;;;;22.78;87.50;100629.46;1656751;86;20264;-75
2021/09/18 05:59:33;;;;;;;;;;;;;;;22.76;87.26;100623.89;1668962;85;20265;-78
2021/09/18 06:02:06;;;;;;;;;;;;;;;22.73;87.48;100624.59;1687163;84;20675;-84
2021/09/18 06:04:41;;;;;;;;;;;;;;;22.76;87.59;100623.33;1684060;84;20246;-75
2021/09/18 06:07:13;;;;;;;;;;;;;;;22.74;87.44;100621.40;1696774;83;20590;-76
2021/09/18 06:09:47;;;;;;;;;;;;;;;22.73;87.81;100622.58;1679621;83;20238;-80
2021/09/18 06:12:19;;;;;;;;;;;;;;;22.77;87.93;100622.72;1710128;83;20241;-78
2021/09/18 06:14:51;;;;;;;;;;;;;;;22.83;88.06;100625.59;1707869;83;20267;-71
2021/09/18 06:17:23;;;;;;;;;;;;;;;22.91;87.81;100619.87;1682524;84;20607;-77
2021/09/18 06:19:55;;;;;;;;;;;;;;;22.96;87.56;100627.33;1710395;83;20228;-76
2021/09/18 06:22:27;;;;;;;;;;;;;;;22.99;87.82;100618.97;1691441;84;20237;-76
2021/09/18 06:25:00;;;;;;;;;;;;;;;23.06;87.43;100617.86;1682875;83;20288;-74
2021/09/18 06:27:34;;;;;;;;;;;;;;;23.13;86.94;100622.38;1694351;84;20237;-75
2021/09/18 06:30:08;;;;;;;;;;;;;;;23.17;86.41;100616.87;1694430;85;20296;-75
2021/09/18 06:32:43;;;;;;;;;;;;;;;23.21;86.04;100612.16;1694725;84;20237;-79
2021/09/18 06:35:16;;;;;;;;;;;;;;;23.26;85.79;100617.62;1708136;83;20620;-76
2021/09/18 06:37:48;;;;;;;;;;;;;;;23.29;85.31;100612.69;1687827;84;20275;-76
2021/09/18 06:40:20;;;;;;;;;;;;;;;23.30;85.23;100602.42;1689791;84;20286;-77
2021/09/18 06:42:53;;;;;;;;;;;;;;;23.34;84.76;100602.56;1689693;84;20378;-75
2021/09/18 06:45:25;;;;;;;;;;;;;;;23.36;84.87;100601.01;1690191;84;20366;-76
2021/09/18 06:47:57;;;;;;;;;;;;;;;23.39;84.70;100595.23;1693893;84;20242;-81
2021/09/18 06:50:29;;;;;;;;;;;;;;;23.43;84.58;100591.95;1690281;84;20237;-77
2021/09/18 06:53:01;;;;;;;;;;;;;;;23.41;84.37;100601.41;1691485;84;20381;-73
2021/09/18 06:55:33;;;;;;;;;;;;;;;23.39;84.35;100596.08;1691937;84;21134;-72
2021/09/18 06:58:05;;;;;;;;;;;;;;;23.42;84.46;100600.22;1681673;84;20286;-74
2021/09/18 07:00:37;;;;;;;;;;;;;;;23.45;84.56;100597.52;1663964;85;20278;-73
2021/09/18 07:03:11;;;;;;;;;;;;;;;23.48;84.58;100594.58;1663555;86;20200;-74
2021/09/18 07:05:44;;;;;;;;;;;;;;;23.52;84.90;100587.85;1663732;86;20647;-73
2021/09/18 07:08:15;;;;;;;;;;;;;;;23.58;85.12;100585.64;1663784;85;20262;-75
2021/09/18 07:10:48;;;;;;;;;;;;;;;23.65;85.26;100582.45;1669972;84;20231;-76
2021/09/18 07:13:20;;;;;;;;;;;;;;;23.73;84.95;100582.13;1703467;84;20584;-76
2021/09/18 07:15:53;;;;;;;;;;;;;;;23.79;84.77;100587.24;1687415;84;20247;-74
2021/09/18 07:18:27;;;;;;;;;;;;;;;23.80;84.68;100581.80;1666961;84;20622;-75
2021/09/18 07:21:09;;;;;;;;;;;;;;;23.74;84.82;100575.27;1690097;84;20286;-72
2021/09/18 07:23:41;;;;;;;;;;;;;;;23.64;85.20;100585.05;1691863;83;20361;-73
2021/09/18 07:26:12;;;;;;;;;;;;;;;23.62;85.62;100580.91;1686717;84;20212;-74
2021/09/18 07:28:45;;;;;;;;;;;;;;;23.55;85.72;100577.24;1689901;84;20310;-73
2021/09/18 07:31:16;;;;;;;;;;;;;;;23.52;86.15;100580.77;1690386;84;20291;-75
2021/09/18 07:33:49;;;;;;;;;;;;;;;23.52;86.44;100579.34;1657870;86;20236;-76
2021/09/18 07:36:20;;;;;;;;;;;;;;;23.62;86.47;100577.50;1657499;86;20295;-75
2021/09/18 07:38:53;;;;;;;;;;;;;;;23.74;85.88;100568.18;1656882;86;20208;-75
2021/09/18 07:41:24;;;;;;;;;;;;;;;23.83;85.23;100567.51;1663003;85;20661;-79
2021/09/18 07:44:00;;;;;;;;;;;;;;;23.89;84.75;100568.97;1684043;85;20302;-77
2021/09/18 07:46:30;;;;;;;;;;;;;;;23.94;84.69;100559.63;1677321;84;20770;-81
2021/09/18 07:49:02;;;;;;;;;;;;;;;23.95;84.46;100560.47;1680189;84;20254;-83
2021/09/18 07:51:34;;;;;;;;;;;;;;;23.93;84.42;100555.14;1683957;84;20245;-79
2021/09/18 07:54:06;;;;;;;;;;;;;;;23.91;84.33;100558.09;1683898;85;20283;-83
2021/09/18 07:56:38;;;;;;;;;;;;;;;23.89;84.58;100563.30;1687790;85;20658;-81
2021/09/18 07:59:10;;;;;;;;;;;;;;;23.88;85.23;100538.91;1679887;85;20238;-75
2021/09/18 08:01:43;;;;;;;;;;;;;;;23.88;85.95;100536.08;1659480;86;20446;-77
2021/09/18 08:04:15;;;;;;;;;;;;;;;23.91;86.04;100535.39;1656191;85;20259;-77
2021/09/18 08:06:46;;;;;;;;;;;;;;;23.99;86.24;100528.77;1660762;86;20616;-78
2021/09/18 08:09:19;;;;;;;;;;;;;;;24.06;85.84;100538.35;1655521;86;20291;-87
2021/09/18 08:11:51;;;;;;;;;;;;;;;24.17;85.61;100538.70;1653593;86;20368;-79
2021/09/18 08:14:23;;;;;;;;;;;;;;;24.24;85.25;100536.09;1653207;85;20261;-77
2021/09/18 08:16:57;;;;;;;;;;;;;;;24.30;85.21;100534.67;1622165;86;20686;-76
2021/09/18 08:19:31;;;;;;;;;;;;;;;24.32;84.72;100532.33;1631583;86;20211;-77
2021/09/18 08:22:03;;;;;;;;;;;;;;;24.36;84.83;100534.09;1651665;86;20244;-78
2021/09/18 08:24:38;;;;;;;;;;;;;;;24.39;84.15;100529.71;1658596;85;20238;-75
2021/09/18 08:27:16;;;;;;;;;;;;;;;24.36;83.76;100537.51;1656208;85;20270;-78
2021/09/18 08:29:48;;;;;;;;;;;;;;;24.33;83.87;100536.20;1681291;85;20611;-77
2021/09/18 08:32:19;;;;;;;;;;;;;;;24.35;84.59;100528.18;1666454;84;20184;-79
2021/09/18 08:34:51;;;;;;;;;;;;;;;24.32;84.20;100540.23;1629801;86;20310;-77
2021/09/18 08:37:23;;;;;;;;;;;;;;;24.29;84.63;100530.19;1655657;86;20291;-79
2021/09/18 08:39:55;;;;;;;;;;;;;;;24.33;85.04;100533.38;1654919;86;20275;-78
2021/09/18 08:42:28;;;;;;;;;;;;;;;24.36;85.03;100523.31;1655595;86;20191;-79
2021/09/18 08:45:01;;;;;;;;;;;;;;;24.45;85.59;100524.84;1647698;86;20260;-76
2021/09/18 08:47:34;;;;;;;;;;;;;;;24.53;85.13;100521.06;1652313;86;20303;-75
2021/09/18 08:50:08;;;;;;;;;;;;;;;24.52;84.16;100508.63;1669316;86;20555;-75
2021/09/18 08:52:41;;;;;;;;;;;;;;;24.47;83.64;100514.55;1669560;86;20628;-77
2021/09/18 08:55:13;;;;;;;;;;;;;;;24.40;83.56;100505.81;1652433;86;20321;-76
2021/09/18 08:57:46;;;;;;;;;;;;;;;24.30;83.23;100494.92;1662070;86;20363;-74
2021/09/18 09:00:36;;;;;;;;;;;;;;;24.18;83.79;100506.29;1664918;84;20553;-75
2021/09/18 09:03:09;;;;;;;;;;;;;;;24.00;84.13;100505.72;1697565;84;20258;-75
2021/09/18 09:05:43;;;;;;;;;;;;;;;23.82;84.95;100518.44;1707197;84;20233;-75
2021/09/18 09:08:17;;;;;;;;;;;;;;;23.74;85.90;100520.80;1704091;84;20244;-76
2021/09/18 09:10:49;;;;;;;;;;;;;;;23.68;86.44;100522.78;1701451;84;20577;-74
2021/09/18 09:13:22;;;;;;;;;;;;;;;23.57;86.93;100498.31;1700154;84;20217;-74
2021/09/18 09:16:09;;;;;;;;;;;;;;;23.47;87.55;100507.27;1707413;84;20184;-74
2021/09/18 09:18:41;;;;;;;;;;;;;;;23.39;87.63;100508.77;1707599;84;20247;-76
2021/09/18 09:21:18;;;;;;;;;;;;;;;23.34;88.17;100516.11;1701466;84;20205;-75
2021/09/18 09:24:11;;;;;;;;;;;;;;;23.31;88.65;100527.55;1676137;84;20184;-76
2021/09/18 09:26:45;;;;;;;;;;;;;;;23.26;88.82;100523.52;1700246;84;20198;-77
2021/09/18 09:29:17;;;;;;;;;;;;;;;23.20;89.15;100519.81;1697971;83;20224;-76
2021/09/18 09:31:49;;;;;;;;;;;;;;;23.13;89.26;100528.02;1703093;84;20189;-75
2021/09/18 09:34:21;;;;;;;;;;;;;;;23.07;89.62;100542.16;1707479;84;20542;-74
2021/09/18 09:36:54;;;;;;;;;;;;;;;23.01;89.95;100542.13;1682594;84;20235;-77
2021/09/18 09:39:27;;;;;;;;;;;;;;;22.94;90.50;100533.38;1671757;84;20198;-78
2021/09/18 09:42:03;;;;;;;;;;;;;;;22.88;91.04;100536.17;1701200;83;20262;-81
2021/09/18 09:44:36;;;;;;;;;;;;;;;22.80;91.16;100542.75;1674370;84;20242;-76
2021/09/18 09:47:12;;;;;;;;;;;;;;;22.80;91.80;100538.50;1669123;84;20579;-82
2021/09/18 09:49:48;;;;;;;;;;;;;;;22.82;91.87;100538.97;1675043;84;20224;-77
2021/09/18 09:52:26;;;;;;;;;;;;;;;22.88;91.54;100541.84;1667090;84;20310;-79
2021/09/18 09:55:14;;;;;;;;;;;;;;;22.90;91.23;100543.15;1674908;84;20658;-76
2021/09/18 09:57:58;;;;;;;;;;;;;;;22.91;91.13;100545.41;1683882;84;20216;-86
2021/09/18 10:00:51;;;;;;;;;;;;;;;22.94;91.02;100548.95;1709023;82;20200;-69
2021/09/18 10:03:24;;;;;;;;;;;;;;;22.98;91.13;100548.52;1706311;83;20248;-78
2021/09/18 10:05:56;;;;;;;;;;;;;;;23.06;90.89;100558.36;1707439;83;20266;-69
2021/09/18 10:08:31;;;;;;;;;;;;;;;23.09;90.66;100563.89;1703356;83;20264;-68
2021/09/18 10:11:07;;;;;;;;;;;;;;;23.14;90.50;100559.43;1717641;82;20262;-72
2021/09/18 10:13:49;;;;;;;;;;;;;;;23.15;90.35;100562.50;1717792;83;20230;-72
2021/09/18 10:16:36;;;;;;;;;;;;;;;23.16;90.43;100569.85;1718031;83;20250;-70
2021/09/18 10:19:11;;;;;;;;;;;;;;;23.20;90.13;100567.41;1723611;83;20198;-72
2021/09/18 10:24:35;;;;;;;;;;;;;;;23.27;89.72;100559.75;1722363;83;20250;-76
2021/09/18 10:27:20;;;;;;;;;;;;;;;23.29;89.50;100563.09;1710367;83;20592;-79
2021/09/18 10:29:52;;;;;;;;;;;;;;;23.30;89.34;100556.23;1696298;84;20312;-77
2021/09/18 10:32:25;;;;;;;;;;;;;;;23.31;89.03;100563.55;1696541;85;20594;-84
2021/09/18 10:35:15;;;;;;;;;;;;;;;23.35;89.14;100558.86;1689079;80;20256;-74
2021/09/18 10:37:47;;;;;;;;;;;;;;;23.40;88.93;100557.23;1657693;86;20240;-82
2021/09/18 10:40:19;;;;;;;;;;;;;;;23.46;89.14;100547.33;1682168;85;20679;-80
2021/09/18 10:42:52;;;;;;;;;;;;;;;23.53;88.82;100544.14;1702944;84;20192;-80
2021/09/18 10:45:28;;;;;;;;;;;;;;;23.56;88.57;100551.95;1697185;83;20245;-72
2021/09/18 10:48:00;;;;;;;;;;;;;;;23.57;88.41;100552.19;1703540;83;20541;-82
2021/09/18 10:50:37;;;;;;;;;;;;;;;23.60;88.39;100563.42;1714975;82;20272;-82
2021/09/18 10:53:20;;;;;;;;;;;;;;;23.61;88.22;100559.41;1710046;84;20212;-76
2021/09/18 10:56:03;;;;;;;;;;;;;;;23.63;88.51;100561.29;1704468;82;20538;-83
2021/09/18 10:58:35;;;;;;;;;;;;;;;23.69;88.58;100565.56;1673362;86;20599;-73
2021/09/18 11:01:06;;;;;;;;;;;;;;;23.79;88.86;100563.13;1687281;84;20197;-78
2021/09/18 11:03:46;;;;;;;;;;;;;;;23.89;88.72;100552.75;1688084;85;20256;-70
2021/09/18 11:06:39;;;;;;;;;;;;;;;24.00;88.30;100555.95;1709260;84;20252;-83
2021/09/18 11:09:12;;;;;;;;;;;;;;;24.09;88.13;100553.84;1739451;82;20305;-72
2021/09/18 11:11:45;;;;;;;;;;;;;;;24.15;87.92;100548.17;1710250;83;20216;-72
2021/09/18 11:14:18;;;;;;;;;;;;;;;24.14;87.50;100548.75;1709436;84;20264;-72
2021/09/18 11:16:51;;;;;;;;;;;;;;;24.18;87.18;100539.77;1727920;83;20202;-88
2021/09/18 11:19:23;;;;;;;;;;;;;;;24.21;86.89;100531.95;1709071;84;20256;-87
2021/09/18 11:21:55;;;;;;;;;;;;;;;24.18;85.98;100534.67;1728296;83;20203;-86
2021/09/18 11:24:29;;;;;;;;;;;;;;;24.19;86.32;100529.27;1764318;80;20274;-79
2021/09/18 11:27:01;;;;;;;;;;;;;;;24.28;86.95;100529.95;1764431;79;20593;-80
2021/09/18 11:29:36;;;;;;;;;;;;;;;24.35;87.31;100523.92;1787346;79;20186;-79
2021/09/18 11:32:13;;;;;;;;;;;;;;;24.49;87.86;100524.95;1775558;80;20172;-79
2021/09/18 11:34:49;;;;;;;;;;;;;;;24.62;88.04;100512.44;1781903;80;20287;-83
2021/09/18 11:37:26;;;;;;;;;;;;;;;24.75;87.22;100513.45;1768526;80;20189;-84
2021/09/18 11:40:08;;;;;;;;;;;;;;;24.85;86.51;100497.91;1712906;84;20252;-83
2021/09/18 11:42:45;;;;;;;;;;;;;;;24.89;85.70;100492.59;1728515;83;20183;-79
2021/09/18 11:45:20;;;;;;;;;;;;;;;24.97;84.76;100490.76;1751413;82;20260;-82
2021/09/18 11:47:58;;;;;;;;;;;;;;;25.05;84.11;100488.37;1767908;79;20224;-80
2021/09/18 11:50:34;;;;;;;;;;;;;;;25.12;83.63;100495.69;1758936;81;20261;-78
2021/09/18 11:53:08;;;;;;;;;;;;;;;25.18;82.83;100490.78;1766461;79;20323;-80
2021/09/18 11:55:47;;;;;;;;;;;;;;;25.15;81.31;100492.94;1739957;81;20194;-80
2021/09/18 11:58:26;;;;;;;;;;;;;;;25.11;81.16;100496.88;1731184;82;20230;-79
2021/09/18 12:01:07;;;;;;;;;;;;;;;25.13;81.07;100512.97;1750654;81;20192;-78
2021/09/18 12:03:52;;;;;;;;;;;;;;;25.19;80.90;100520.05;1746384;82;20268;-84
2021/09/18 12:06:22;;;;;;;;;;;;;;;25.20;80.21;100523.96;1772755;80;20180;-79
2021/09/18 12:08:56;;;;;;;;;;;;;;;25.20;79.94;100535.91;1772409;80;20336;-84
2021/09/18 12:11:30;;;;;;;;;;;;;;;25.13;80.45;100539.98;1764209;80;20178;-79
2021/09/18 12:14:02;;;;;;;;;;;;;;;25.03;81.81;100542.73;1762799;80;20538;-75
2021/09/18 12:16:34;;;;;;;;;;;;;;;24.92;82.97;100552.14;1753661;81;20277;-77
2021/09/18 12:19:07;;;;;;;;;;;;;;;24.78;83.56;100563.89;1728391;80;20300;-80
2021/09/18 12:21:41;;;;;;;;;;;;;;;24.49;83.15;100554.77;1750617;80;20251;-82
2021/09/18 12:24:15;;;;;;;;;;;;;;;24.15;82.99;100542.50;1768149;80;20537;-79
2021/09/18 12:26:48;;;;;;;;;;;;;;;23.90;83.63;100537.38;1728351;81;20254;-80
2021/09/18 12:29:21;;;;;;;;;;;;;;;23.79;84.32;100538.17;1742937;81;20747;-79
2021/09/18 12:31:53;;;;;;;;;;;;;;;23.71;84.64;100530.61;1739648;81;20249;-79
2021/09/18 12:34:28;;;;;;;;;;;;;;;23.65;84.85;100529.17;1720281;81;20197;-81
2021/09/18 12:40:21;;;;;;;;;;;;;;;23.43;84.78;100540.92;1772484;80;20533;-82
2021/09/18 12:43:17;;;;;;;;;;;;;;;23.37;85.62;100547.98;1768083;80;20381;-80
2021/09/18 12:45:51;;;;;;;;;;;;;;;23.28;86.29;100542.41;1766836;80;20569;-83
2021/09/18 12:48:36;;;;;;;;;;;;;;;23.30;86.69;100543.48;1777640;79;20634;-82
2021/09/18 12:51:23;;;;;;;;;;;;;;;23.34;86.84;100540.20;1726861;82;20259;-82
2021/09/18 12:54:09;;;;;;;;;;;;;;;23.39;87.15;100535.70;1730591;83;20198;-82
2021/09/18 12:56:40;;;;;;;;;;;;;;;23.54;87.92;100536.47;1718164;82;20612;-81
2021/09/18 12:59:16;;;;;;;;;;;;;;;23.65;88.13;100530.59;1718300;83;20544;-80
2021/09/18 13:01:54;;;;;;;;;;;;;;;23.80;88.20;100518.55;1705125;83;20318;-81
2021/09/18 13:04:30;;;;;;;;;;;;;;;23.99;88.09;100525.92;1716506;83;20247;-82
2021/09/18 13:07:06;;;;;;;;;;;;;;;24.09;87.55;100524.05;1696501;79;20364;-76
2021/09/18 13:09:59;;;;;;;;;;;;;;;24.17;87.95;100524.52;1653703;86;20589;-78
2021/09/18 13:12:50;;;;;;;;;;;;;;;24.31;87.84;100528.65;1643693;84;20601;-77
2021/09/18 13:15:59;;;;;;;;;;;;;;;24.50;87.77;100529.47;1655824;87;20574;-75